Arco, Minnesota
Current Conditions -  °F | °C
As of 4:15 PM on Sunday 23 Nov 2014 (Local Time) from KMML Reporting Station
Clear Clear  
Wind Chill: 29°   Ceiling: Unl
Heat Index: 39°   Visibility: 10mi
Dew Point: 27°   Wind: 22mph
Humidity: 61%   Direction: 310°NW
Pressure: 29.48"   Gusts: NA
Location:  44.38°N, 96.18°W
Report Text: KMML 232215Z AUTO 31019KT 10SM CLR 04/M03 A2948 RMK AO1
Loading
Personal Weather Stations






























Interactive Weather Map New forecast layout! Learn more

10-Day Weather Forecast

Advertisements
Track Severe Weather on mobile